Terminal Aerodrome Forecast
Issued by NWS

Home | Current Version | Previous Version | Text Only | Print | Product List | Glossary On
Versions: 1 2 3 4 5 6 7 8 9 10 11 12
000
FTUS46 KSEW 301700
TAFBLI
TAF
KBLI 301734Z 3018/3118 17010KT P6SM BKN060 BKN100
     FM302000 17012G20KT P6SM SCT060 BKN100
     FM310000 18012G22KT P6SM BKN050 OVC070
     FM310400 18014G22KT P6SM -RA OVC045
     FM310800 18016G24KT P6SM -RA OVC025
     FM311400 19012G20KT P6SM BKN030 OVC050=

USA.gov is the U.S. government's official web portal to all federal, state and local government web resources and services.